sensor_id;sensor_type;location;lat;lon;timestamp;pressure;altitude;pressure_sealevel;temperature;humidity
73918;BME280;63639;52.280;5.162;2022-10-17T00:00:57;101709.93;;;19.86;56.87
73918;BME280;63639;52.280;5.162;2022-10-17T00:03:24;101708.71;;;19.85;56.91
73918;BME280;63639;52.280;5.162;2022-10-17T00:05:50;101706.85;;;19.85;56.76
73918;BME280;63639;52.280;5.162;2022-10-17T00:08:18;101699.81;;;19.84;56.78
73918;BME280;63639;52.280;5.162;2022-10-17T00:10:54;101701.07;;;19.82;56.70
73918;BME280;63639;52.280;5.162;2022-10-17T00:13:21;101699.91;;;19.82;56.83
73918;BME280;63639;52.280;5.162;2022-10-17T00:15:48;101698.71;;;19.81;56.69
73918;BME280;63639;52.280;5.162;2022-10-17T00:18:14;101697.81;;;19.80;56.79
73918;BME280;63639;52.280;5.162;2022-10-17T00:20:41;101702.38;;;19.79;56.93
73918;BME280;63639;52.280;5.162;2022-10-17T00:23:08;101702.19;;;19.79;56.77
73918;BME280;63639;52.280;5.162;2022-10-17T00:25:34;101700.75;;;19.78;56.92
73918;BME280;63639;52.280;5.162;2022-10-17T00:28:02;101702.23;;;19.77;56.83
73918;BME280;63639;52.280;5.162;2022-10-17T00:30:28;101700.51;;;19.77;56.74
73918;BME280;63639;52.280;5.162;2022-10-17T00:32:55;101700.78;;;19.76;56.72
73918;BME280;63639;52.280;5.162;2022-10-17T00:35:22;101702.27;;;19.76;56.83
73918;BME280;63639;52.280;5.162;2022-10-17T00:37:48;101697.76;;;19.75;56.91
73918;BME280;63639;52.280;5.162;2022-10-17T00:40:15;101695.14;;;19.74;56.95
73918;BME280;63639;52.280;5.162;2022-10-17T00:42:42;101699.67;;;19.74;56.79
73918;BME280;63639;52.280;5.162;2022-10-17T00:45:16;101697.27;;;19.73;56.79
73918;BME280;63639;52.280;5.162;2022-10-17T00:47:46;101692.84;;;19.72;56.89
73918;BME280;63639;52.280;5.162;2022-10-17T00:50:14;101689.62;;;19.72;56.80
73918;BME280;63639;52.280;5.162;2022-10-17T00:52:42;101679.75;;;19.71;56.81
73918;BME280;63639;52.280;5.162;2022-10-17T00:55:12;101676.80;;;19.72;56.74
73918;BME280;63639;52.280;5.162;2022-10-17T00:57:40;101678.52;;;19.71;56.91
73918;BME280;63639;52.280;5.162;2022-10-17T01:00:09;101675.56;;;19.70;56.73
73918;BME280;63639;52.280;5.162;2022-10-17T01:02:37;101673.11;;;19.71;56.76
73918;BME280;63639;52.280;5.162;2022-10-17T01:05:05;101677.24;;;19.71;56.90
73918;BME280;63639;52.280;5.162;2022-10-17T01:07:33;101670.45;;;19.71;56.73
73918;BME280;63639;52.280;5.162;2022-10-17T01:10:01;101667.49;;;19.71;56.66
73918;BME280;63639;52.280;5.162;2022-10-17T01:12:34;101667.67;;;19.69;56.81
73918;BME280;63639;52.280;5.162;2022-10-17T01:15:12;101667.15;;;19.68;56.78
73918;BME280;63639;52.280;5.162;2022-10-17T01:17:50;101658.27;;;19.67;56.82
73918;BME280;63639;52.280;5.162;2022-10-17T01:20:33;101656.23;;;19.66;56.91
73918;BME280;63639;52.280;5.162;2022-10-17T01:23:17;101659.65;;;19.64;56.87
73918;BME280;63639;52.280;5.162;2022-10-17T01:25:54;101653.90;;;19.64;56.88
73918;BME280;63639;52.280;5.162;2022-10-17T01:28:35;101647.44;;;19.63;56.77
73918;BME280;63639;52.280;5.162;2022-10-17T01:31:10;101644.78;;;19.63;56.82
73918;BME280;63639;52.280;5.162;2022-10-17T01:33:47;101644.47;;;19.62;56.78
73918;BME280;63639;52.280;5.162;2022-10-17T01:36:26;101643.60;;;19.60;56.86
73918;BME280;63639;52.280;5.162;2022-10-17T01:39:11;101641.54;;;19.60;56.91
73918;BME280;63639;52.280;5.162;2022-10-17T01:41:43;101640.70;;;19.60;56.89
73918;BME280;63639;52.280;5.162;2022-10-17T01:44:18;101644.55;;;19.59;56.90
73918;BME280;63639;52.280;5.162;2022-10-17T01:46:49;101645.04;;;19.58;57.06
73918;BME280;63639;52.280;5.162;2022-10-17T01:49:20;101642.77;;;19.58;57.10
73918;BME280;63639;52.280;5.162;2022-10-17T01:51:51;101638.26;;;19.57;57.00
73918;BME280;63639;52.280;5.162;2022-10-17T01:54:22;101630.99;;;19.57;57.07
73918;BME280;63639;52.280;5.162;2022-10-17T01:56:53;101618.79;;;19.57;57.15
73918;BME280;63639;52.280;5.162;2022-10-17T01:59:34;101610.22;;;19.56;57.13
73918;BME280;63639;52.280;5.162;2022-10-17T02:02:04;101599.45;;;19.55;57.08
73918;BME280;63639;52.280;5.162;2022-10-17T02:04:33;101594.71;;;19.54;57.16
73918;BME280;63639;52.280;5.162;2022-10-17T02:07:06;101588.08;;;19.54;57.05
73918;BME280;63639;52.280;5.162;2022-10-17T02:09:32;101583.46;;;19.54;57.06
73918;BME280;63639;52.280;5.162;2022-10-17T02:12:10;101578.91;;;19.53;57.11
73918;BME280;63639;52.280;5.162;2022-10-17T02:14:52;101574.48;;;19.54;57.14
73918;BME280;63639;52.280;5.162;2022-10-17T02:17:30;101577.58;;;19.53;57.33
73918;BME280;63639;52.280;5.162;2022-10-17T02:20:09;101574.93;;;19.52;57.25
73918;BME280;63639;52.280;5.162;2022-10-17T02:22:44;101576.95;;;19.52;57.11
73918;BME280;63639;52.280;5.162;2022-10-17T02:25:22;101576.85;;;19.52;57.08
73918;BME280;63639;52.280;5.162;2022-10-17T02:27:53;101573.36;;;19.51;57.22
73918;BME280;63639;52.280;5.162;2022-10-17T02:30:29;101569.89;;;19.51;57.25
73918;BME280;63639;52.280;5.162;2022-10-17T02:33:01;101572.38;;;19.51;57.14
73918;BME280;63639;52.280;5.162;2022-10-17T02:35:34;101571.46;;;19.50;57.24
73918;BME280;63639;52.280;5.162;2022-10-17T02:38:03;101567.18;;;19.49;57.35
73918;BME280;63639;52.280;5.162;2022-10-17T02:40:31;101563.26;;;19.49;57.24
73918;BME280;63639;52.280;5.162;2022-10-17T02:43:03;101562.00;;;19.49;57.36
73918;BME280;63639;52.280;5.162;2022-10-17T02:45:32;101558.06;;;19.48;57.24
73918;BME280;63639;52.280;5.162;2022-10-17T02:48:02;101563.88;;;19.48;57.20
73918;BME280;63639;52.280;5.162;2022-10-17T02:50:38;101568.55;;;19.48;57.16
73918;BME280;63639;52.280;5.162;2022-10-17T02:53:13;101568.71;;;19.47;57.20
73918;BME280;63639;52.280;5.162;2022-10-17T02:55:45;101571.42;;;19.47;57.16
73918;BME280;63639;52.280;5.162;2022-10-17T02:58:18;101569.70;;;19.47;57.10
73918;BME280;63639;52.280;5.162;2022-10-17T03:00:47;101573.82;;;19.47;57.09
73918;BME280;63639;52.280;5.162;2022-10-17T03:03:19;101574.21;;;19.45;57.15
73918;BME280;63639;52.280;5.162;2022-10-17T03:05:47;101577.48;;;19.45;57.13
73918;BME280;63639;52.280;5.162;2022-10-17T03:08:14;101574.80;;;19.46;57.37
73918;BME280;63639;52.280;5.162;2022-10-17T03:10:41;101575.15;;;19.46;57.45
73918;BME280;63639;52.280;5.162;2022-10-17T03:13:08;101574.29;;;19.45;57.55
73918;BME280;63639;52.280;5.162;2022-10-17T03:15:35;101571.04;;;19.45;57.44
73918;BME280;63639;52.280;5.162;2022-10-17T03:18:02;101571.49;;;19.45;57.96
73918;BME280;63639;52.280;5.162;2022-10-17T03:20:29;101572.22;;;19.45;57.71
73918;BME280;63639;52.280;5.162;2022-10-17T03:22:56;101576.78;;;19.44;57.62
73918;BME280;63639;52.280;5.162;2022-10-17T03:25:23;101580.27;;;19.45;57.56
73918;BME280;63639;52.280;5.162;2022-10-17T03:27:50;101580.22;;;19.45;57.61
73918;BME280;63639;52.280;5.162;2022-10-17T03:30:18;101577.15;;;19.44;58.14
73918;BME280;63639;52.280;5.162;2022-10-17T03:32:45;101586.10;;;19.44;57.77
73918;BME280;63639;52.280;5.162;2022-10-17T03:35:12;101586.88;;;19.45;57.96
73918;BME280;63639;52.280;5.162;2022-10-17T03:37:39;101578.50;;;19.45;57.70
73918;BME280;63639;52.280;5.162;2022-10-17T03:40:06;101588.03;;;19.44;57.74
73918;BME280;63639;52.280;5.162;2022-10-17T03:42:33;101587.49;;;19.44;57.80
73918;BME280;63639;52.280;5.162;2022-10-17T03:45:00;101583.68;;;19.45;57.89
73918;BME280;63639;52.280;5.162;2022-10-17T03:47:27;101585.81;;;19.44;58.62
73918;BME280;63639;52.280;5.162;2022-10-17T03:49:54;101591.46;;;19.44;57.89
73918;BME280;63639;52.280;5.162;2022-10-17T03:52:21;101593.25;;;19.45;57.63
73918;BME280;63639;52.280;5.162;2022-10-17T03:54:48;101592.66;;;19.45;57.78
73918;BME280;63639;52.280;5.162;2022-10-17T03:57:15;101588.41;;;19.45;57.63
73918;BME280;63639;52.280;5.162;2022-10-17T03:59:42;101587.77;;;19.46;57.69
73918;BME280;63639;52.280;5.162;2022-10-17T04:02:09;101583.97;;;19.46;57.65
73918;BME280;63639;52.280;5.162;2022-10-17T04:04:36;101583.08;;;19.47;57.76
73918;BME280;63639;52.280;5.162;2022-10-17T04:07:03;101580.90;;;19.48;57.73
73918;BME280;63639;52.280;5.162;2022-10-17T04:09:30;101579.66;;;19.48;57.70
73918;BME280;63639;52.280;5.162;2022-10-17T04:11:59;101578.15;;;19.49;57.79
73918;BME280;63639;52.280;5.162;2022-10-17T04:14:26;101574.47;;;19.49;57.90
73918;BME280;63639;52.280;5.162;2022-10-17T04:16:53;101577.61;;;19.49;57.75
73918;BME280;63639;52.280;5.162;2022-10-17T04:19:20;101585.03;;;19.49;57.94
73918;BME280;63639;52.280;5.162;2022-10-17T04:21:46;101595.89;;;19.50;57.66
73918;BME280;63639;52.280;5.162;2022-10-17T04:24:14;101610.17;;;19.50;57.59
73918;BME280;63639;52.280;5.162;2022-10-17T04:26:40;101605.35;;;19.51;57.86
73918;BME280;63639;52.280;5.162;2022-10-17T04:29:07;101592.21;;;19.51;57.74
73918;BME280;63639;52.280;5.162;2022-10-17T04:31:34;101591.97;;;19.51;57.67
73918;BME280;63639;52.280;5.162;2022-10-17T04:34:01;101596.27;;;19.51;57.62
73918;BME280;63639;52.280;5.162;2022-10-17T04:36:28;101596.87;;;19.51;57.64
73918;BME280;63639;52.280;5.162;2022-10-17T04:38:56;101597.06;;;19.51;57.60
73918;BME280;63639;52.280;5.162;2022-10-17T04:41:23;101602.07;;;19.52;57.66
73918;BME280;63639;52.280;5.162;2022-10-17T04:43:50;101603.74;;;19.51;57.64
73918;BME280;63639;52.280;5.162;2022-10-17T04:46:17;101601.49;;;19.52;57.72
73918;BME280;63639;52.280;5.162;2022-10-17T04:48:45;101605.89;;;19.52;57.68
73918;BME280;63639;52.280;5.162;2022-10-17T04:51:21;101611.17;;;19.53;57.79
73918;BME280;63639;52.280;5.162;2022-10-17T04:53:48;101610.19;;;19.53;57.75
73918;BME280;63639;52.280;5.162;2022-10-17T04:56:18;101615.37;;;19.53;57.57
73918;BME280;63639;52.280;5.162;2022-10-17T04:58:46;101615.57;;;19.55;57.69
73918;BME280;63639;52.280;5.162;2022-10-17T05:01:16;101627.80;;;19.55;57.56
73918;BME280;63639;52.280;5.162;2022-10-17T05:03:44;101638.33;;;19.56;57.78
73918;BME280;63639;52.280;5.162;2022-10-17T05:06:13;101642.95;;;19.57;58.42
73918;BME280;63639;52.280;5.162;2022-10-17T05:08:41;101647.96;;;19.60;57.94
73918;BME280;63639;52.280;5.162;2022-10-17T05:11:15;101635.80;;;19.60;57.88
73918;BME280;63639;52.280;5.162;2022-10-17T05:13:43;101636.01;;;19.61;57.91
73918;BME280;63639;52.280;5.162;2022-10-17T05:16:10;101631.35;;;19.61;58.00
73918;BME280;63639;52.280;5.162;2022-10-17T05:18:38;101625.88;;;19.62;58.05
73918;BME280;63639;52.280;5.162;2022-10-17T05:21:05;101624.74;;;19.62;58.11
73918;BME280;63639;52.280;5.162;2022-10-17T05:23:33;101626.43;;;19.67;63.12
73918;BME280;63639;52.280;5.162;2022-10-17T05:26:00;101624.29;;;19.71;62.76
73918;BME280;63639;52.280;5.162;2022-10-17T05:28:27;101621.10;;;19.74;61.22
73918;BME280;63639;52.280;5.162;2022-10-17T05:30:54;101620.18;;;19.73;60.38
73918;BME280;63639;52.280;5.162;2022-10-17T05:33:22;101631.15;;;19.73;59.89
73918;BME280;63639;52.280;5.162;2022-10-17T05:35:50;101646.15;;;19.74;59.78
73918;BME280;63639;52.280;5.162;2022-10-17T05:38:17;101652.89;;;19.74;59.30
73918;BME280;63639;52.280;5.162;2022-10-17T05:40:45;101649.38;;;19.75;59.37
73918;BME280;63639;52.280;5.162;2022-10-17T05:43:12;101649.73;;;19.75;59.15
73918;BME280;63639;52.280;5.162;2022-10-17T05:45:39;101649.43;;;19.76;59.01
73918;BME280;63639;52.280;5.162;2022-10-17T05:48:07;101644.65;;;19.76;58.90
73918;BME280;63639;52.280;5.162;2022-10-17T05:50:34;101644.96;;;19.76;58.75
73918;BME280;63639;52.280;5.162;2022-10-17T05:53:02;101637.60;;;19.77;58.61
73918;BME280;63639;52.280;5.162;2022-10-17T05:55:28;101632.83;;;19.78;58.64
73918;BME280;63639;52.280;5.162;2022-10-17T05:57:55;101639.21;;;19.78;58.48
73918;BME280;63639;52.280;5.162;2022-10-17T06:00:23;101639.51;;;19.78;58.43
73918;BME280;63639;52.280;5.162;2022-10-17T06:02:50;101633.28;;;19.79;58.39
73918;BME280;63639;52.280;5.162;2022-10-17T06:05:17;101629.97;;;19.80;58.44
73918;BME280;63639;52.280;5.162;2022-10-17T06:07:44;101632.98;;;19.80;58.42
73918;BME280;63639;52.280;5.162;2022-10-17T06:10:13;101642.64;;;19.80;58.46
73918;BME280;63639;52.280;5.162;2022-10-17T06:12:40;101645.25;;;19.81;58.26
73918;BME280;63639;52.280;5.162;2022-10-17T06:15:08;101651.97;;;19.81;58.26
73918;BME280;63639;52.280;5.162;2022-10-17T06:17:36;101652.83;;;19.82;58.21
73918;BME280;63639;52.280;5.162;2022-10-17T06:20:03;101650.91;;;19.82;58.54
73918;BME280;63639;52.280;5.162;2022-10-17T06:22:30;101650.28;;;19.82;58.44
73918;BME280;63639;52.280;5.162;2022-10-17T06:24:58;101649.36;;;19.82;58.58
73918;BME280;63639;52.280;5.162;2022-10-17T06:27:24;101651.72;;;19.82;58.69
73918;BME280;63639;52.280;5.162;2022-10-17T06:29:51;101662.04;;;19.81;58.28
73918;BME280;63639;52.280;5.162;2022-10-17T06:32:19;101663.65;;;19.82;58.34
73918;BME280;63639;52.280;5.162;2022-10-17T06:34:46;101671.79;;;19.82;58.29
73918;BME280;63639;52.280;5.162;2022-10-17T06:37:17;101687.66;;;19.82;58.17
73918;BME280;63639;52.280;5.162;2022-10-17T06:39:44;101689.59;;;19.83;58.29
73918;BME280;63639;52.280;5.162;2022-10-17T06:42:12;101686.23;;;19.83;58.32
73918;BME280;63639;52.280;5.162;2022-10-17T06:44:39;101699.38;;;19.83;58.34
73918;BME280;63639;52.280;5.162;2022-10-17T06:47:05;101709.17;;;19.83;58.20
73918;BME280;63639;52.280;5.162;2022-10-17T06:49:33;101716.37;;;19.83;58.13
73918;BME280;63639;52.280;5.162;2022-10-17T06:52:00;101713.68;;;19.85;58.12
73918;BME280;63639;52.280;5.162;2022-10-17T06:54:27;101709.13;;;19.85;58.11
73918;BME280;63639;52.280;5.162;2022-10-17T06:56:54;101711.17;;;19.86;58.18
73918;BME280;63639;52.280;5.162;2022-10-17T06:59:21;101717.30;;;19.86;58.36
73918;BME280;63639;52.280;5.162;2022-10-17T07:01:47;101718.92;;;19.86;58.18
73918;BME280;63639;52.280;5.162;2022-10-17T07:04:14;101725.61;;;19.86;58.19
73918;BME280;63639;52.280;5.162;2022-10-17T07:07:53;101728.40;;;19.87;58.20
73918;BME280;63639;52.280;5.162;2022-10-17T07:10:21;101726.21;;;19.88;58.19
73918;BME280;63639;52.280;5.162;2022-10-17T07:12:48;101729.90;;;19.89;58.10
73918;BME280;63639;52.280;5.162;2022-10-17T07:15:15;101729.62;;;19.89;58.27
73918;BME280;63639;52.280;5.162;2022-10-17T07:17:42;101732.57;;;19.90;58.15
73918;BME280;63639;52.280;5.162;2022-10-17T07:20:09;101729.61;;;19.90;58.13
73918;BME280;63639;52.280;5.162;2022-10-17T07:22:36;101727.70;;;19.91;58.11
73918;BME280;63639;52.280;5.162;2022-10-17T07:25:03;101745.37;;;19.91;58.18
73918;BME280;63639;52.280;5.162;2022-10-17T07:27:30;101745.68;;;19.92;58.14
73918;BME280;63639;52.280;5.162;2022-10-17T07:29:57;101747.04;;;19.93;58.08
73918;BME280;63639;52.280;5.162;2022-10-17T07:32:24;101759.40;;;19.93;58.32
73918;BME280;63639;52.280;5.162;2022-10-17T07:34:51;101752.88;;;19.93;58.19
73918;BME280;63639;52.280;5.162;2022-10-17T07:37:17;101749.24;;;19.93;58.22
73918;BME280;63639;52.280;5.162;2022-10-17T07:39:44;101749.10;;;19.94;58.37
73918;BME280;63639;52.280;5.162;2022-10-17T07:42:11;101768.44;;;19.96;58.20
73918;BME280;63639;52.280;5.162;2022-10-17T07:44:38;101780.12;;;19.96;58.24
73918;BME280;63639;52.280;5.162;2022-10-17T07:47:06;101781.76;;;19.97;58.54
73918;BME280;63639;52.280;5.162;2022-10-17T07:49:33;101794.14;;;19.98;58.33
73918;BME280;63639;52.280;5.162;2022-10-17T07:52:00;101801.13;;;19.99;58.14
73918;BME280;63639;52.280;5.162;2022-10-17T07:54:27;101806.85;;;20.01;58.57
73918;BME280;63639;52.280;5.162;2022-10-17T07:56:55;101811.21;;;20.01;58.55
73918;BME280;63639;52.280;5.162;2022-10-17T07:59:22;101830.77;;;20.03;59.03
73918;BME280;63639;52.280;5.162;2022-10-17T08:01:49;101848.37;;;20.04;59.25
73918;BME280;63639;52.280;5.162;2022-10-17T08:04:16;101854.07;;;20.06;59.49
73918;BME280;63639;52.280;5.162;2022-10-17T08:06:43;101873.71;;;20.07;59.39
73918;BME280;63639;52.280;5.162;2022-10-17T08:09:10;101891.45;;;20.08;60.10
73918;BME280;63639;52.280;5.162;2022-10-17T08:11:37;101913.17;;;20.10;59.69
73918;BME280;63639;52.280;5.162;2022-10-17T08:14:04;101922.36;;;20.11;59.72
73918;BME280;63639;52.280;5.162;2022-10-17T08:16:31;101925.49;;;20.11;59.63
73918;BME280;63639;52.280;5.162;2022-10-17T08:18:58;101926.55;;;20.15;59.86
73918;BME280;63639;52.280;5.162;2022-10-17T08:21:26;101933.40;;;20.17;59.86
73918;BME280;63639;52.280;5.162;2022-10-17T08:23:53;101933.14;;;20.19;60.46
73918;BME280;63639;52.280;5.162;2022-10-17T08:26:20;101923.79;;;20.20;60.20
73918;BME280;63639;52.280;5.162;2022-10-17T08:28:47;101924.05;;;20.21;60.57
73918;BME280;63639;52.280;5.162;2022-10-17T08:31:16;101916.37;;;20.22;60.85
73918;BME280;63639;52.280;5.162;2022-10-17T08:33:44;101917.74;;;20.23;60.55
73918;BME280;63639;52.280;5.162;2022-10-17T08:36:13;101920.89;;;20.26;60.64
73918;BME280;63639;52.280;5.162;2022-10-17T08:38:40;101917.08;;;20.28;60.60
73918;BME280;63639;52.280;5.162;2022-10-17T08:41:13;101895.51;;;20.29;60.10
73918;BME280;63639;52.280;5.162;2022-10-17T08:43:51;101906.38;;;20.30;59.97
73918;BME280;63639;52.280;5.162;2022-10-17T08:46:20;101913.68;;;20.33;60.09
73918;BME280;63639;52.280;5.162;2022-10-17T08:48:48;101915.13;;;20.35;59.98
73918;BME280;63639;52.280;5.162;2022-10-17T08:51:20;101914.13;;;20.35;60.07
73918;BME280;63639;52.280;5.162;2022-10-17T08:53:50;101919.63;;;20.36;59.93
73918;BME280;63639;52.280;5.162;2022-10-17T08:56:19;101924.49;;;20.40;60.14
73918;BME280;63639;52.280;5.162;2022-10-17T08:58:46;101916.03;;;20.39;60.39
73918;BME280;63639;52.280;5.162;2022-10-17T09:01:30;101888.86;;;20.41;60.07
73918;BME280;63639;52.280;5.162;2022-10-17T09:04:11;101870.17;;;20.45;59.81
73918;BME280;63639;52.280;5.162;2022-10-17T09:06:46;101869.33;;;20.46;59.77
73918;BME280;63639;52.280;5.162;2022-10-17T09:09:24;101881.45;;;20.46;59.65
73918;BME280;63639;52.280;5.162;2022-10-17T09:12:01;101876.91;;;20.48;59.52
73918;BME280;63639;52.280;5.162;2022-10-17T09:14:47;101868.29;;;20.49;59.47
73918;BME280;63639;52.280;5.162;2022-10-17T09:17:22;101879.77;;;20.50;59.44
73918;BME280;63639;52.280;5.162;2022-10-17T09:19:58;101893.56;;;20.52;59.51
73918;BME280;63639;52.280;5.162;2022-10-17T09:22:31;101915.06;;;20.53;59.33
73918;BME280;63639;52.280;5.162;2022-10-17T09:25:03;101915.26;;;20.53;59.45
73918;BME280;63639;52.280;5.162;2022-10-17T09:27:35;101933.74;;;20.54;59.50
73918;BME280;63639;52.280;5.162;2022-10-17T09:30:19;101945.88;;;20.55;59.48
73918;BME280;63639;52.280;5.162;2022-10-17T09:32:47;101940.57;;;20.57;59.55
73918;BME280;63639;52.280;5.162;2022-10-17T09:35:14;101940.88;;;20.56;59.55
73918;BME280;63639;52.280;5.162;2022-10-17T09:37:41;101928.87;;;20.56;59.51
73918;BME280;63639;52.280;5.162;2022-10-17T09:40:15;101917.01;;;20.57;59.54
73918;BME280;63639;52.280;5.162;2022-10-17T09:42:44;101923.16;;;20.56;59.68
73918;BME280;63639;52.280;5.162;2022-10-17T09:45:15;101912.78;;;20.57;59.64
73918;BME280;63639;52.280;5.162;2022-10-17T09:47:46;101905.61;;;20.58;59.54
73918;BME280;63639;52.280;5.162;2022-10-17T09:50:20;101907.57;;;20.60;59.39
73918;BME280;63639;52.280;5.162;2022-10-17T09:52:50;101905.42;;;20.61;59.50
73918;BME280;63639;52.280;5.162;2022-10-17T09:55:21;101910.26;;;20.63;59.46
73918;BME280;63639;52.280;5.162;2022-10-17T09:57:53;101913.88;;;20.65;59.46
73918;BME280;63639;52.280;5.162;2022-10-17T10:00:23;101921.01;;;20.67;59.43
73918;BME280;63639;52.280;5.162;2022-10-17T10:02:50;101931.21;;;20.68;59.35
73918;BME280;63639;52.280;5.162;2022-10-17T10:05:35;101951.00;;;20.69;59.31
73918;BME280;63639;52.280;5.162;2022-10-17T10:08:04;101971.70;;;20.71;59.39
73918;BME280;63639;52.280;5.162;2022-10-17T10:10:31;101974.84;;;20.72;59.40
73918;BME280;63639;52.280;5.162;2022-10-17T10:13:05;101983.57;;;20.75;59.38
73918;BME280;63639;52.280;5.162;2022-10-17T10:15:35;101992.89;;;20.76;59.60
73918;BME280;63639;52.280;5.162;2022-10-17T10:18:08;101987.56;;;20.76;59.44
73918;BME280;63639;52.280;5.162;2022-10-17T10:21:04;101996.45;;;20.76;59.45
73918;BME280;63639;52.280;5.162;2022-10-17T10:23:31;102001.82;;;20.77;59.72
73918;BME280;63639;52.280;5.162;2022-10-17T10:26:02;102010.06;;;20.78;59.49
73918;BME280;63639;52.280;5.162;2022-10-17T10:28:30;102007.62;;;20.79;59.52
73918;BME280;63639;52.280;5.162;2022-10-17T10:31:00;102014.60;;;20.81;59.66
73918;BME280;63639;52.280;5.162;2022-10-17T10:33:29;102020.50;;;20.82;59.73
73918;BME280;63639;52.280;5.162;2022-10-17T10:35:59;102027.03;;;20.83;59.76
73918;BME280;63639;52.280;5.162;2022-10-17T10:38:27;102035.41;;;20.85;59.88
73918;BME280;63639;52.280;5.162;2022-10-17T10:40:55;102040.46;;;20.86;60.62
73918;BME280;63639;52.280;5.162;2022-10-17T10:43:29;102039.29;;;20.87;60.30
73918;BME280;63639;52.280;5.162;2022-10-17T10:45:57;102034.26;;;20.89;60.29
73918;BME280;63639;52.280;5.162;2022-10-17T10:48:26;102036.89;;;20.91;60.60
73918;BME280;63639;52.280;5.162;2022-10-17T10:50:56;102042.02;;;20.91;60.32
73918;BME280;63639;52.280;5.162;2022-10-17T10:53:31;102040.81;;;20.93;60.33
73918;BME280;63639;52.280;5.162;2022-10-17T10:56:02;102048.44;;;20.94;60.54
73918;BME280;63639;52.280;5.162;2022-10-17T10:58:38;102058.49;;;20.95;60.63
73918;BME280;63639;52.280;5.162;2022-10-17T11:01:22;102062.97;;;20.98;61.30
73918;BME280;63639;52.280;5.162;2022-10-17T11:03:59;102061.88;;;20.98;60.70
73918;BME280;63639;52.280;5.162;2022-10-17T11:06:35;102063.43;;;20.99;60.74
73918;BME280;63639;52.280;5.162;2022-10-17T11:09:16;102062.43;;;20.99;60.23
73918;BME280;63639;52.280;5.162;2022-10-17T11:11:48;102064.42;;;21.01;60.66
73918;BME280;63639;52.280;5.162;2022-10-17T11:14:23;102071.35;;;21.02;61.35
73918;BME280;63639;52.280;5.162;2022-10-17T11:17:02;102072.26;;;21.03;61.00
73918;BME280;63639;52.280;5.162;2022-10-17T11:19:36;102075.76;;;21.03;60.64
73918;BME280;63639;52.280;5.162;2022-10-17T11:22:10;102075.01;;;21.04;60.50
73918;BME280;63639;52.280;5.162;2022-10-17T11:24:43;102081.65;;;21.06;60.75
73918;BME280;63639;52.280;5.162;2022-10-17T11:27:13;102086.30;;;21.06;60.61
73918;BME280;63639;52.280;5.162;2022-10-17T11:29:40;102091.64;;;21.07;60.57
73918;BME280;63639;52.280;5.162;2022-10-17T11:32:12;102096.64;;;21.08;60.43
73918;BME280;63639;52.280;5.162;2022-10-17T11:34:44;102097.65;;;21.09;60.33
73918;BME280;63639;52.280;5.162;2022-10-17T11:37:16;102104.10;;;21.10;60.35
73918;BME280;63639;52.280;5.162;2022-10-17T11:39:49;102112.77;;;21.11;60.17
73918;BME280;63639;52.280;5.162;2022-10-17T11:42:19;102118.61;;;21.12;60.19
73918;BME280;63639;52.280;5.162;2022-10-17T11:44:50;102121.27;;;21.12;59.93
73918;BME280;63639;52.280;5.162;2022-10-17T11:47:28;102126.87;;;21.13;61.74
73918;BME280;63639;52.280;5.162;2022-10-17T11:50:02;102126.08;;;21.11;60.76
73918;BME280;63639;52.280;5.162;2022-10-17T11:52:36;102123.38;;;21.12;60.77
73918;BME280;63639;52.280;5.162;2022-10-17T11:55:20;102126.19;;;21.12;60.70
73918;BME280;63639;52.280;5.162;2022-10-17T11:58:00;102125.35;;;21.13;60.68
73918;BME280;63639;52.280;5.162;2022-10-17T12:00:39;102134.58;;;21.13;60.72
73918;BME280;63639;52.280;5.162;2022-10-17T12:03:22;102134.23;;;21.14;60.97
73918;BME280;63639;52.280;5.162;2022-10-17T12:05:55;102134.83;;;21.13;60.63
73918;BME280;63639;52.280;5.162;2022-10-17T12:08:29;102137.58;;;21.13;60.41
73918;BME280;63639;52.280;5.162;2022-10-17T12:11:02;102130.23;;;21.13;60.87
73918;BME280;63639;52.280;5.162;2022-10-17T12:14:02;102138.80;;;21.14;60.55
73918;BME280;63639;52.280;5.162;2022-10-17T12:16:38;102142.40;;;21.13;60.56
73918;BME280;63639;52.280;5.162;2022-10-17T12:19:31;102149.04;;;21.14;60.42
73918;BME280;63639;52.280;5.162;2022-10-17T12:22:04;102134.21;;;21.13;60.62
73918;BME280;63639;52.280;5.162;2022-10-17T12:24:40;102131.59;;;21.13;60.54
73918;BME280;63639;52.280;5.162;2022-10-17T12:27:21;102138.89;;;21.13;60.69
73918;BME280;63639;52.280;5.162;2022-10-17T12:29:49;102142.34;;;21.13;60.41
73918;BME280;63639;52.280;5.162;2022-10-17T12:32:16;102145.23;;;21.13;60.40
73918;BME280;63639;52.280;5.162;2022-10-17T12:34:51;102150.66;;;21.14;60.30
73918;BME280;63639;52.280;5.162;2022-10-17T12:37:59;102156.68;;;21.15;60.09
73918;BME280;63639;52.280;5.162;2022-10-17T12:41:00;102160.49;;;21.15;60.09
73918;BME280;63639;52.280;5.162;2022-10-17T12:43:43;102153.28;;;21.15;59.95
73918;BME280;63639;52.280;5.162;2022-10-17T12:46:10;102154.80;;;21.15;59.78
73918;BME280;63639;52.280;5.162;2022-10-17T12:49:42;102158.33;;;21.16;59.87
73918;BME280;63639;52.280;5.162;2022-10-17T12:52:21;102158.27;;;21.17;60.04
73918;BME280;63639;52.280;5.162;2022-10-17T12:55:23;102159.74;;;21.19;59.98
73918;BME280;63639;52.280;5.162;2022-10-17T12:57:54;102163.29;;;21.19;60.43
73918;BME280;63639;52.280;5.162;2022-10-17T13:00:28;102162.79;;;21.20;59.94
73918;BME280;63639;52.280;5.162;2022-10-17T13:03:03;102169.07;;;21.21;60.37
73918;BME280;63639;52.280;5.162;2022-10-17T13:05:33;102172.60;;;21.22;61.09
73918;BME280;63639;52.280;5.162;2022-10-17T13:08:03;102171.57;;;21.23;60.62
73918;BME280;63639;52.280;5.162;2022-10-17T13:10:33;102172.34;;;21.23;60.31